Flight Track Log - Related Links

Times and Time Zones

All times are in EDT time to prevent confusion due to time zone crossing. See the SWA1551 flight status page for this flight to view local times or setup timezone preferences in your user account.

Time Position Orientation Groundspeed Altitude Reporting Facility
EDT Latitude Longitude Course Direction KTS MPH feet Rate Location/Type
Fri 03:23:58 PM 36.1000 -86.6833 270° West 137 158 1,200  Level Nashville TRACON
Fri 03:25:22 PM 36.1000 -86.7667 270° West 206 237 4,500 2,957 Climbing Nashville TRACON
Fri 03:26:16 PM 36.1500 -86.8167 321° Northwest 262 302 8,000 3,722 Climbing Nashville TRACON
Fri 03:27:10 PM 36.2167 -86.7833 22° Northeast 330 380 11,200 3,273 Climbing Nashville TRACON
Fri 03:28:17 PM 36.3050 -86.7103 34° Northeast 370 426 14,600 2,646 Climbing Memphis Center
Fri 03:29:17 PM 36.3986 -86.6339 33° Northeast 413 475 16,800 2,600 Climbing Memphis Center
Fri 03:30:17 PM 36.5164 -86.5278 36° Northeast 452 520 19,800 2,950 Climbing Memphis Center
Fri 03:31:17 PM 36.6408 -86.4392 30° Northeast 497 572 22,700 2,600 Climbing Memphis Center
Fri 03:32:17 PM 36.7742 -86.3731 22° Northeast 507 583 25,000 1,150 Climbing Memphis Center
Fri 03:33:17 PM 36.9117 -86.3092 20° North 518 596 25,000  Level Memphis Center
Fri 03:34:17 PM 37.0450 -86.2428 22° Northeast 518 596 25,000  Level Memphis Center
Fri 03:36:08 PM 37.2897 -86.1136 23° Northeast 525 604 25,000 314 Level Indianapolis Center
Fri 03:37:09 PM 37.4219 -86.0258 28° Northeast 533 613 25,900 1,561 Climbing Indianapolis Center
Fri 03:38:11 PM 37.5547 -85.9381 28° Northeast 533 613 28,200 2,419 Climbing Indianapolis Center
Fri 03:39:13 PM 37.6858 -85.8525 27° Northeast 541 623 30,900 1,355 Climbing Indianapolis Center
Fri 03:40:15 PM 37.8167 -85.7647 28° Northeast 535 616 31,000 49 Climbing Indianapolis Center
Fri 03:41:16 PM 37.9394 -85.6575 35° Northeast 535 616 31,000  Level Indianapolis Center
Fri 03:42:18 PM 38.0847 -85.5306 35° Northeast 528 608 31,000  Level Indianapolis Center
Fri 03:43:20 PM 38.2078 -85.4225 35° Northeast 535 616 31,000  Level Indianapolis Center
Fri 03:44:22 PM 38.3303 -85.3147 35° Northeast 535 616 31,000  Level Indianapolis Center
Fri 03:45:24 PM 38.4617 -85.1969 35° Northeast 530 610 31,000  Level Indianapolis Center
Fri 03:46:25 PM 38.5864 -85.0869 35° Northeast 539 620 31,000  Level Indianapolis Center
Fri 03:47:27 PM 38.6972 -84.9883 35° Northeast 535 616 31,000  Level Indianapolis Center
Fri 03:48:29 PM 38.8317 -84.8667 35° Northeast 538 619 31,000  Level Indianapolis Center
Fri 03:49:31 PM 38.9481 -84.7619 35° Northeast 536 617 31,000 -387 Level Indianapolis Center
Fri 03:50:33 PM 39.0703 -84.6475 36° Northeast 538 619 30,200 -927 Descending Indianapolis Center
Fri 03:51:34 PM 39.2078 -84.5025 39° Northeast 543 625 29,100 -585 Descending Indianapolis Center
Fri 03:52:36 PM 39.3269 -84.3783 39° Northeast 546 628 29,000 -48 Descending Indianapolis Center
Fri 03:53:38 PM 39.4497 -84.2483 39° Northeast 561 646 29,000  Level Indianapolis Center
Fri 03:54:40 PM 39.5753 -84.1164 39° Northeast 574 661 29,000  Level Indianapolis Center
Fri 03:55:42 PM 39.7022 -83.9811 39° Northeast 583 671 29,000 -293 Level Indianapolis Center
Fri 03:56:43 PM 39.8353 -83.8378 40° Northeast 606 697 28,400 -829 Descending Indianapolis Center
Fri 03:57:45 PM 39.9675 -83.6961 39° Northeast 602 693 27,300 -1,065 Descending Indianapolis Center
Fri 03:58:47 PM 40.0986 -83.5547 40° Northeast 596 686 26,200 -1,645 Descending Indianapolis Center
Fri 03:59:49 PM 40.2269 -83.4156 40° Northeast 591 680 23,900 -2,488 Descending Indianapolis Center
Fri 04:00:50 PM 40.3425 -83.2686 44° Northeast 575 662 21,100 -2,195 Descending Indianapolis Center
Fri 04:01:52 PM 40.4525 -83.1275 44° Northeast 551 634 19,400 -1,016 Descending Indianapolis Center
Fri 04:02:54 PM 40.5783 -82.9658 44° Northeast 544 626 19,000 -194 Descending Indianapolis Center
Fri 04:03:56 PM 40.6864 -82.8256 45° Northeast 541 623 19,000 -1,452 Level Indianapolis Center
Fri 04:04:58 PM 40.7928 -82.6864 45° Northeast 534 615 16,000 -3,061 Descending Indianapolis Center
Fri 04:05:34 PM 40.8536 -82.6144 42° Northeast 514 592 14,000 -3,583 Descending Cleveland Center
Fri 04:06:10 PM 40.9092 -82.5392 46° Northeast 462 532 11,700 -2,526 Descending Cleveland Center
Fri 04:07:09 PM 40.9944 -82.4264 45° Northeast 440 506 10,000 -857 Descending Cleveland Center
Fri 04:08:09 PM 41.0756 -82.3156 46° Northeast 411 473 10,000  Level Cleveland Center
Fri 04:09:09 PM 41.1583 -82.2075 44° Northeast 411 473 10,000 -50 Level Cleveland Center
Fri 04:10:09 PM 41.2267 -82.0989 50° Northeast 397 457 9,900 -650 Descending Cleveland Center
Fri 04:11:09 PM 41.2800 -82.0061 53° Northeast 370 426 8,700 -1,350 Descending Cleveland Center
Fri 04:12:09 PM 41.3311 -81.8994 57° Northeast 348 400 7,200 -900 Descending Cleveland Center
Fri 04:13:09 PM 41.3697 -81.7978 63° Northeast 320 368 6,900 -850 Descending Cleveland Center
Fri 04:14:09 PM 41.4189 -81.6961 57° Northeast 299 344 5,500 -1,500 Descending Cleveland Center
Fri 04:15:09 PM 41.4778 -81.6475 32° Northeast 249 287 3,900 -1,230 Descending Cleveland Center
Fri 04:16:11 PM 41.5125 -81.6978 313° West 167 192 3,000 -492 Descending Cleveland Center
Fri 04:17:11 PM 41.4808 -81.7472 229° Southwest 167 192 2,900 -446 Descending Cleveland Center
Fri 04:18:12 PM 41.4575 -81.7828 229° Southwest 112 129 2,100 -787 Descending Cleveland Center

Login

Don't have an account? Register now (free) for customized features, flight alerts, and more!